createdAt,value
2023-04-06T00:02:00.229Z,101017.19
2023-04-06T00:04:27.701Z,101019.53
2023-04-06T00:06:55.223Z,101013.56
2023-04-06T00:09:22.683Z,101015.16
2023-04-06T00:11:50.159Z,101017.34
2023-04-06T00:14:18.947Z,101012.19
2023-04-06T00:16:46.520Z,101022.69
2023-04-06T00:19:14.078Z,101012.16
2023-04-06T00:21:41.600Z,101014.50
2023-04-06T00:24:09.294Z,101011.16
2023-04-06T00:26:36.772Z,101006.78
2023-04-06T00:29:04.236Z,101010.97
2023-04-06T00:31:33.100Z,101005.72
2023-04-06T00:34:00.586Z,100999.09
2023-04-06T00:36:28.071Z,100998.72
2023-04-06T00:38:55.959Z,100997.00
2023-04-06T00:41:23.477Z,100995.09
2023-04-06T00:43:50.959Z,100989.31
2023-04-06T00:46:18.451Z,100988.63
2023-04-06T00:48:47.295Z,100983.56
2023-04-06T00:51:14.746Z,100976.41
2023-04-06T00:53:42.223Z,100980.34
2023-04-06T00:56:10.761Z,100970.41
2023-04-06T00:58:39.544Z,100970.53
2023-04-06T01:01:07.193Z,100964.81
2023-04-06T01:03:34.774Z,100958.78
2023-04-06T02:37:05.231Z,100938.53
2023-04-06T02:39:32.669Z,100931.63
2023-04-06T02:42:00.884Z,100936.13
2023-04-06T02:44:28.355Z,100937.19
2023-04-06T02:46:55.858Z,100930.16
2023-04-06T02:49:26.736Z,100930.38
2023-04-06T02:51:54.173Z,100934.34
2023-04-06T02:54:22.989Z,100935.41
2023-04-06T02:56:50.458Z,100930.06
2023-04-06T02:59:17.995Z,100940.19
2023-04-06T03:01:45.764Z,100932.38
2023-04-06T03:04:13.288Z,100938.81
2023-04-06T03:06:40.780Z,100935.81
2023-04-06T03:09:08.743Z,100930.38
2023-04-06T03:11:37.679Z,100934.34
2023-04-06T03:14:05.318Z,100935.38
2023-04-06T03:16:32.761Z,100934.16
2023-04-06T03:19:00.323Z,100937.59
2023-04-06T03:21:27.754Z,100938.94
2023-04-06T03:23:55.262Z,100936.84
2023-04-06T03:26:23.421Z,100939.88
2023-04-06T03:28:52.241Z,100942.28
2023-04-06T03:31:19.688Z,100943.22
2023-04-06T03:33:47.157Z,100938.81
2023-04-06T03:36:14.654Z,100943.91
2023-04-06T03:38:42.177Z,100949.34
2023-04-06T03:41:09.603Z,100934.97
2023-04-06T03:43:37.298Z,100941.03
2023-04-06T03:46:06.206Z,100941.00
2023-04-06T03:48:33.794Z,100943.16
2023-04-06T03:51:01.218Z,100950.78
2023-04-06T03:53:28.705Z,100945.97
2023-04-06T03:55:56.227Z,100949.34
2023-04-06T03:58:23.796Z,100948.72
2023-04-06T04:00:51.475Z,100948.72
2023-04-06T04:03:20.468Z,100947.50
2023-04-06T04:05:48.006Z,100951.13
2023-04-06T04:08:15.456Z,100946.97
2023-04-06T04:10:42.908Z,100951.44
2023-04-06T04:13:10.658Z,100953.25
2023-04-06T04:15:38.148Z,100956.66
2023-04-06T04:18:06.023Z,100961.94
2023-04-06T04:20:35.050Z,100958.13
2023-04-06T04:23:02.633Z,100963.75
2023-04-06T04:25:30.216Z,100965.19
2023-04-06T04:27:57.797Z,100957.84
2023-04-06T04:30:25.322Z,100967.97
2023-04-06T04:32:52.903Z,100966.63
2023-04-06T04:35:20.750Z,100968.50
2023-04-06T04:37:49.552Z,100969.56
2023-04-06T04:40:17.621Z,100965.44
2023-04-06T04:42:45.876Z,100969.75
2023-04-06T04:45:13.783Z,100969.19
2023-04-06T04:47:41.271Z,100969.09
2023-04-06T04:50:09.374Z,100973.69
2023-04-06T04:52:36.815Z,100973.28
2023-04-06T04:55:06.680Z,100977.94
2023-04-06T04:57:34.234Z,100974.41
2023-04-06T05:00:02.648Z,100968.06
2023-04-06T05:02:30.556Z,100974.00
2023-04-06T05:04:58.135Z,100975.63
2023-04-06T05:07:25.932Z,100976.28
2023-04-06T05:09:53.438Z,100978.41
2023-04-06T05:12:22.796Z,100977.56
2023-04-06T05:14:50.267Z,100981.81
2023-04-06T05:17:17.731Z,100982.59
2023-04-06T05:19:45.449Z,100976.22
2023-04-06T05:22:15.095Z,100976.97
2023-04-06T05:24:42.542Z,100985.81
2023-04-06T05:27:10.010Z,100987.56
2023-04-06T05:29:38.869Z,100984.31
2023-04-06T05:32:07.148Z,100987.47
2023-04-06T05:34:34.613Z,100987.06
2023-04-06T05:37:02.203Z,100982.09
2023-04-06T05:39:29.687Z,100991.38
2023-04-06T05:41:57.480Z,100990.63
2023-04-06T05:44:25.067Z,100986.84
2023-04-06T05:46:53.982Z,100990.72
2023-04-06T05:49:21.441Z,100985.72
2023-04-06T05:51:48.866Z,100992.13
2023-04-06T05:54:16.437Z,100985.84
2023-04-06T05:56:43.978Z,100995.25
2023-04-06T05:59:11.668Z,100996.84
2023-04-06T06:01:39.293Z,101001.03
2023-04-06T06:04:08.120Z,100996.69
2023-04-06T06:06:36.039Z,100997.84
2023-04-06T06:09:04.380Z,101000.22
2023-04-06T06:11:31.963Z,100996.47
2023-04-06T06:13:59.605Z,100996.03
2023-04-06T06:16:27.095Z,100995.63
2023-04-06T06:18:54.583Z,101002.94
2023-04-06T06:21:23.400Z,101000.53
2023-04-06T06:23:51.210Z,100993.50
2023-04-06T06:26:18.684Z,101000.81
2023-04-06T06:28:46.358Z,101000.88
2023-04-06T06:31:13.846Z,101003.56
2023-04-06T06:33:41.418Z,101007.09
2023-04-06T06:36:09.184Z,101008.63
2023-04-06T06:38:39.121Z,101000.97
2023-04-06T06:41:06.776Z,100994.63
2023-04-06T06:43:34.235Z,100995.38
2023-04-06T06:46:01.739Z,101001.47
2023-04-06T06:48:29.338Z,101003.19
2023-04-06T06:50:57.259Z,101005.00
2023-04-06T06:53:25.565Z,100996.78
2023-04-06T06:55:54.335Z,100998.13
2023-04-06T06:58:21.793Z,100996.94
2023-04-06T07:00:49.389Z,100998.16
2023-04-06T07:03:16.906Z,100990.13
2023-04-06T07:05:50.091Z,100992.16
2023-04-06T07:08:18.010Z,100988.59
2023-04-06T07:10:45.720Z,100991.53
2023-04-06T07:13:19.066Z,100987.50
2023-04-06T07:15:46.657Z,100989.72
2023-04-06T07:18:14.149Z,100992.56
2023-04-06T07:20:41.694Z,100999.06
2023-04-06T07:23:09.345Z,100995.56
2023-04-06T07:25:36.908Z,100992.69
2023-04-06T07:28:04.764Z,100997.59
2023-04-06T07:30:35.137Z,100993.44
2023-04-06T07:33:04.605Z,100991.47
2023-04-06T07:35:32.125Z,101004.84
2023-04-06T07:37:59.725Z,101000.66
2023-04-06T07:40:27.873Z,100998.84
2023-04-06T07:42:56.264Z,101004.19
2023-04-06T07:45:25.395Z,101003.41
2023-04-06T07:47:54.236Z,100996.78
2023-04-06T07:50:21.915Z,100998.25
2023-04-06T07:52:49.502Z,100997.47
2023-04-06T07:55:16.962Z,101005.22
2023-04-06T07:57:44.411Z,101001.84
2023-04-06T08:00:12.878Z,100991.59
2023-04-06T08:02:40.493Z,101004.22
2023-04-06T08:05:10.219Z,101003.00
2023-04-06T08:07:37.748Z,101002.06
2023-04-06T08:10:06.083Z,101001.56
2023-04-06T08:12:34.384Z,100999.78
2023-04-06T08:15:03.324Z,100992.25
2023-04-06T08:17:32.010Z,101001.03
2023-04-06T08:19:59.782Z,100993.38
2023-04-06T08:22:28.655Z,100994.91
2023-04-06T08:24:56.316Z,101001.44
2023-04-06T08:27:23.950Z,100999.75
2023-04-06T08:29:51.670Z,100991.00
2023-04-06T08:32:19.188Z,100994.88
2023-04-06T08:34:46.653Z,100992.38
2023-04-06T08:37:14.154Z,100995.66
2023-04-06T08:39:42.989Z,100990.53
2023-04-06T08:42:15.471Z,100979.19
2023-04-06T08:44:43.470Z,100980.31
2023-04-06T08:47:10.921Z,100978.50
2023-04-06T08:49:39.808Z,100982.22
2023-04-06T08:52:08.626Z,100987.47
2023-04-06T08:54:36.229Z,100981.81
2023-04-06T08:57:06.552Z,100978.69
2023-04-06T08:59:34.648Z,100974.69
2023-04-06T09:02:05.861Z,100977.53
2023-04-06T09:04:34.406Z,100979.63
2023-04-06T09:07:02.194Z,100983.94
2023-04-06T09:09:29.748Z,100980.41
2023-04-06T09:12:02.635Z,100975.19
2023-04-06T09:14:38.535Z,100984.88
2023-04-06T09:17:06.682Z,100975.75
2023-04-06T09:19:34.211Z,100971.66
2023-04-06T09:22:05.885Z,100986.75
2023-04-06T09:24:43.619Z,100977.25
2023-04-06T09:27:11.219Z,100971.44
2023-04-06T09:29:40.011Z,100970.63
2023-04-06T09:32:08.172Z,100967.78
2023-04-06T09:34:36.134Z,100960.38
2023-04-06T09:37:14.222Z,100963.56
2023-04-06T09:39:41.775Z,100960.97
2023-04-06T09:42:09.277Z,100959.03
2023-04-06T09:44:36.767Z,100965.69
2023-04-06T09:47:08.690Z,100962.72
2023-04-06T09:49:36.725Z,100956.13
2023-04-06T09:52:05.538Z,100958.50
2023-04-06T09:54:33.492Z,100959.03
2023-04-06T09:57:06.397Z,100956.22
2023-04-06T09:59:46.948Z,100950.25
2023-04-06T10:02:22.193Z,100958.44
2023-04-06T10:04:54.126Z,100945.31
2023-04-06T10:07:22.088Z,100941.00
2023-04-06T10:09:49.847Z,100943.28
2023-04-06T10:12:18.253Z,100946.63
2023-04-06T10:14:46.172Z,100942.28
2023-04-06T10:17:13.687Z,100935.63
2023-04-06T10:19:48.581Z,100936.41
2023-04-06T10:22:31.224Z,100934.44
2023-04-06T10:24:58.698Z,100930.59
2023-04-06T10:27:32.973Z,100926.91
2023-04-06T10:30:04.177Z,100927.19
2023-04-06T10:32:36.693Z,100930.13
2023-04-06T10:35:12.450Z,100934.09
2023-04-06T10:37:51.497Z,100930.38
2023-04-06T10:40:24.276Z,100924.09
2023-04-06T10:42:51.835Z,100922.47
2023-04-06T10:45:23.631Z,100915.41
2023-04-06T10:47:54.797Z,100914.28
2023-04-06T10:50:24.485Z,100909.41
2023-04-06T10:53:01.097Z,100903.34
2023-04-06T10:55:29.662Z,100904.38
2023-04-06T10:57:57.183Z,100895.28
2023-04-06T11:00:28.940Z,100890.84
2023-04-06T11:03:04.253Z,100891.31
2023-04-06T11:05:33.349Z,100893.66
2023-04-06T11:08:00.795Z,100901.94
2023-04-06T11:10:28.476Z,100893.59
2023-04-06T11:12:56.588Z,100891.69
2023-04-06T11:15:24.413Z,100891.13
2023-04-06T11:17:52.087Z,100881.84
2023-04-06T11:20:20.455Z,100879.22
2023-04-06T11:22:53.467Z,100874.38
2023-04-06T11:25:21.242Z,100884.94
2023-04-06T11:27:49.082Z,100882.81
2023-04-06T11:30:16.572Z,100876.88
2023-04-06T11:32:45.574Z,100879.09
2023-04-06T11:35:14.626Z,100875.59
2023-04-06T11:37:44.997Z,100880.25
2023-04-06T11:40:13.864Z,100861.38
2023-04-06T11:42:41.431Z,100860.25
2023-04-06T11:45:09.613Z,100862.09
2023-04-06T11:47:38.620Z,100862.53
2023-04-06T11:50:10.359Z,100846.63
2023-04-06T11:52:38.920Z,100845.06
2023-04-06T11:55:15.749Z,100841.81
2023-04-06T11:57:44.367Z,100844.44
2023-04-06T12:00:13.356Z,100847.34
2023-04-06T12:02:41.536Z,100843.00
2023-04-06T12:05:09.762Z,100844.84
2023-04-06T12:07:37.293Z,100839.59
2023-04-06T12:10:05.853Z,100840.06
2023-04-06T12:12:34.679Z,100840.09
2023-04-06T12:15:02.117Z,100833.91
2023-04-06T12:17:29.608Z,100836.53
2023-04-06T12:20:01.842Z,100832.34
2023-04-06T12:22:32.493Z,100829.88
2023-04-06T12:24:59.950Z,100826.66
2023-04-06T12:27:27.627Z,100828.59
2023-04-06T12:29:57.433Z,100823.00
2023-04-06T12:32:24.922Z,100820.72
2023-04-06T12:34:53.865Z,100822.69
2023-04-06T12:37:21.566Z,100815.66
2023-04-06T12:39:49.030Z,100808.66
2023-04-06T12:42:16.663Z,100815.50
2023-04-06T12:44:44.753Z,100815.41
2023-04-06T12:47:13.743Z,100807.75
2023-04-06T12:49:41.358Z,100808.47
2023-04-06T12:52:08.850Z,100812.81
2023-04-06T12:54:36.326Z,100804.63
2023-04-06T12:57:03.800Z,100806.06
2023-04-06T12:59:35.696Z,100804.81
2023-04-06T13:02:03.287Z,100812.00
2023-04-06T13:04:32.157Z,100809.56
2023-04-06T13:06:59.694Z,100797.25
2023-04-06T13:09:27.313Z,100805.31
2023-04-06T13:11:54.914Z,100798.94
2023-04-06T13:14:22.392Z,100797.09
2023-04-06T13:16:49.908Z,100796.88
2023-04-06T13:19:17.518Z,100790.97
2023-04-06T13:21:46.388Z,100786.44
2023-04-06T13:24:16.229Z,100788.56
2023-04-06T13:26:44.007Z,100783.25
2023-04-06T13:29:11.475Z,100774.00
2023-04-06T13:31:39.850Z,100769.44
2023-04-06T13:34:07.447Z,100770.44
2023-04-06T13:36:34.931Z,100772.50
2023-04-06T13:39:04.195Z,100768.19
2023-04-06T13:41:31.653Z,100766.38
2023-04-06T13:43:59.775Z,100774.81
2023-04-06T13:46:28.134Z,100770.69
2023-04-06T13:48:55.692Z,100767.13
2023-04-06T13:51:23.147Z,100766.31
2023-04-06T13:53:53.508Z,100754.91
2023-04-06T13:56:22.297Z,100753.59
2023-04-06T13:58:49.825Z,100752.91
2023-04-06T14:01:17.460Z,100752.72
2023-04-06T14:03:48.349Z,100753.16
2023-04-06T14:06:29.654Z,100755.66
2023-04-06T14:08:59.084Z,100763.06
2023-04-06T14:11:28.100Z,100751.53
2023-04-06T14:13:57.983Z,100755.16
2023-04-06T14:16:26.530Z,100757.28
2023-04-06T14:18:54.131Z,100754.81
2023-04-06T14:21:21.820Z,100759.34
2023-04-06T14:23:49.313Z,100751.06
2023-04-06T14:26:17.488Z,100749.00
2023-04-06T14:28:47.279Z,100753.78
2023-04-06T14:31:16.175Z,100752.75
2023-04-06T14:33:44.585Z,100752.13
2023-04-06T14:36:12.456Z,100753.16
2023-04-06T14:38:41.155Z,100751.94
2023-04-06T14:41:09.227Z,100744.50
2023-04-06T14:43:36.718Z,100750.69
2023-04-06T14:46:05.642Z,100751.53
2023-04-06T14:48:33.179Z,100747.16
2023-04-06T14:51:00.661Z,100743.19
2023-04-06T14:53:28.764Z,100739.09
2023-04-06T14:55:56.416Z,100737.22
2023-04-06T14:58:25.288Z,100741.59
2023-04-06T15:00:57.322Z,100740.38
2023-04-06T15:03:27.087Z,100739.91
2023-04-06T15:05:54.803Z,100737.03
2023-04-06T15:08:23.994Z,100736.78
2023-04-06T15:10:52.919Z,100737.59
2023-04-06T15:13:20.414Z,100736.34
2023-04-06T15:15:47.890Z,100729.31
2023-04-06T15:18:16.197Z,100731.59
2023-04-06T15:20:44.974Z,100733.88
2023-04-06T15:23:12.460Z,100730.78
2023-04-06T15:25:42.005Z,100729.91
2023-04-06T15:28:09.538Z,100727.22
2023-04-06T15:30:37.234Z,100735.44
2023-04-06T15:33:06.653Z,100732.28
2023-04-06T15:35:39.943Z,100729.81
2023-04-06T15:38:08.803Z,100726.22
2023-04-06T15:40:37.086Z,100730.28
2023-04-06T15:43:04.538Z,100735.34
2023-04-06T15:45:31.982Z,100731.88
2023-04-06T15:47:59.531Z,100741.00
2023-04-06T15:50:27.944Z,100742.13
2023-04-06T15:52:55.464Z,100740.19
2023-04-06T15:55:24.640Z,100748.81
2023-04-06T15:57:52.686Z,100739.81
2023-04-06T16:00:20.854Z,100732.88
2023-04-06T16:02:48.534Z,100737.22
2023-04-06T16:05:16.290Z,100730.63
2023-04-06T16:07:43.995Z,100735.59
2023-04-06T16:10:11.748Z,100745.25
2023-04-06T16:12:42.375Z,100744.75
2023-04-06T16:15:10.770Z,100746.41
2023-04-06T16:17:38.256Z,100740.44
2023-04-06T16:20:06.886Z,100739.53
2023-04-06T16:22:34.361Z,100732.59
2023-04-06T16:25:02.043Z,100735.56
2023-04-06T16:27:29.508Z,100730.06
2023-04-06T16:29:58.396Z,100735.84
2023-04-06T16:32:26.024Z,100730.94
2023-04-06T16:34:53.606Z,100735.78
2023-04-06T16:37:21.107Z,100732.34
2023-04-06T16:39:48.615Z,100731.00
2023-04-06T16:42:17.305Z,100740.31
2023-04-06T16:44:44.808Z,100747.13
2023-04-06T16:47:13.682Z,100740.63
2023-04-06T16:49:41.376Z,100740.56
2023-04-06T16:52:08.893Z,100749.91
2023-04-06T16:54:36.548Z,100743.28
2023-04-06T16:57:06.186Z,100740.81
2023-04-06T16:59:34.046Z,100744.09
2023-04-06T17:02:01.802Z,100742.75
2023-04-06T17:04:31.065Z,100751.25
2023-04-06T17:06:58.564Z,100749.06
2023-04-06T17:09:26.165Z,100743.25
2023-04-06T17:11:54.026Z,100739.19
2023-04-06T17:14:21.541Z,100734.34
2023-04-06T17:16:49.254Z,100730.53
2023-04-06T17:19:16.979Z,100738.06
2023-04-06T17:21:45.974Z,100741.38
2023-04-06T17:24:13.660Z,100745.16
2023-04-06T17:26:41.366Z,100752.41
2023-04-06T17:29:08.856Z,100751.78
2023-04-06T17:31:36.482Z,100754.34
2023-04-06T17:34:04.020Z,100761.09
2023-04-06T17:36:32.788Z,100756.88
2023-04-06T17:39:01.882Z,100754.34
2023-04-06T17:41:32.525Z,100764.47
2023-04-06T17:44:00.105Z,100766.88
2023-04-06T17:46:27.662Z,100774.13
2023-04-06T17:48:55.559Z,100770.34
2023-04-06T17:51:23.092Z,100773.66
2023-04-06T17:53:50.686Z,100773.56
2023-04-06T17:56:19.783Z,100772.91
2023-04-06T17:58:47.303Z,100783.19
2023-04-06T18:01:15.006Z,100783.97
2023-04-06T18:03:42.776Z,100790.66
2023-04-06T18:06:12.438Z,100789.66
2023-04-06T18:08:40.308Z,100795.38
2023-04-06T18:11:07.925Z,100788.84
2023-04-06T18:13:39.278Z,100797.41
2023-04-06T18:16:08.136Z,100797.94
2023-04-06T18:18:35.638Z,100801.69
2023-04-06T18:21:04.756Z,100796.72
2023-04-06T18:23:32.326Z,100801.25
2023-04-06T18:26:00.627Z,100806.13
2023-04-06T18:28:28.257Z,100808.19
2023-04-06T18:30:57.145Z,100806.09
2023-04-06T18:33:27.310Z,100807.03
2023-04-06T18:35:56.367Z,100819.00
2023-04-06T18:38:24.013Z,100823.34
2023-04-06T18:40:51.740Z,100827.13
2023-04-06T18:43:19.280Z,100833.97
2023-04-06T18:45:48.833Z,100826.78
2023-04-06T18:48:17.791Z,100830.81
2023-04-06T18:50:52.838Z,100840.47
2023-04-06T18:53:21.153Z,100842.47
2023-04-06T18:55:48.658Z,100845.31
2023-04-06T18:58:16.399Z,100849.34
2023-04-06T19:00:44.006Z,100852.03
2023-04-06T19:03:11.623Z,100852.78
2023-04-06T19:05:42.569Z,100851.41
2023-04-06T19:08:10.395Z,100849.25
2023-04-06T19:10:38.557Z,100861.44
2023-04-06T19:13:06.145Z,100857.84
2023-04-06T19:15:33.768Z,100863.22
2023-04-06T19:18:01.318Z,100858.34
2023-04-06T19:20:28.947Z,100858.34
2023-04-06T19:22:57.959Z,100859.28
2023-04-06T19:25:25.746Z,100862.94
2023-04-06T19:27:53.231Z,100866.63
2023-04-06T19:30:20.744Z,100861.28
2023-04-06T19:32:48.296Z,100868.53
2023-04-06T19:35:16.070Z,100865.19
2023-04-06T19:37:44.133Z,100862.72
2023-04-06T19:40:13.212Z,100860.31
2023-04-06T19:42:40.740Z,100865.75
2023-04-06T19:45:09.307Z,100867.91
2023-04-06T19:47:36.810Z,100861.88
2023-04-06T19:50:07.356Z,100870.25
2023-04-06T19:52:34.848Z,100868.75
2023-04-06T19:55:04.221Z,100867.78
2023-04-06T19:57:33.034Z,100865.88
2023-04-06T20:00:01.206Z,100866.75
2023-04-06T20:02:28.930Z,100866.56
2023-04-06T20:04:56.608Z,100867.59
2023-04-06T20:07:24.123Z,100870.59
2023-04-06T20:09:51.589Z,100868.59
2023-04-06T20:12:19.063Z,100859.31
2023-04-06T20:14:47.856Z,100858.34
2023-04-06T20:17:15.453Z,100873.25
2023-04-06T20:19:42.985Z,100874.91
2023-04-06T20:22:10.492Z,100872.28
2023-04-06T20:24:37.972Z,100871.78
2023-04-06T20:27:05.666Z,100870.63
2023-04-06T20:29:33.151Z,100870.28
2023-04-06T20:32:02.299Z,100861.97
2023-04-06T20:34:29.927Z,100863.97
2023-04-06T20:37:03.626Z,100866.97
2023-04-06T20:39:31.739Z,100860.50
2023-04-06T20:42:00.934Z,100866.31
2023-04-06T20:44:28.704Z,100863.63
2023-04-06T20:46:56.344Z,100866.94
2023-04-06T20:49:25.277Z,100861.72
2023-04-06T20:51:52.805Z,100859.25
2023-04-06T20:54:20.547Z,100856.75
2023-04-06T20:56:48.023Z,100860.91
2023-04-06T20:59:15.868Z,100859.09
2023-04-06T21:01:44.209Z,100856.97
2023-04-06T21:04:11.934Z,100851.59
2023-04-06T21:06:40.873Z,100848.28
2023-04-06T21:09:08.453Z,100846.31
2023-04-06T21:11:36.521Z,100851.63
2023-04-06T21:14:04.007Z,100838.38
2023-04-06T21:16:31.576Z,100849.94
2023-04-06T21:18:59.037Z,100839.66
2023-04-06T21:21:26.539Z,100845.66
2023-04-06T21:23:55.368Z,100835.66
2023-04-06T21:26:22.824Z,100831.47
2023-04-06T21:28:50.266Z,100825.19
2023-04-06T21:31:19.781Z,100829.16
2023-04-06T21:33:47.610Z,100827.72
2023-04-06T21:36:15.103Z,100819.91
2023-04-06T21:38:42.671Z,100816.81
2023-04-06T21:41:11.811Z,100819.94
2023-04-06T21:43:39.304Z,100807.56
2023-04-06T21:46:06.843Z,100811.81
2023-04-06T21:48:34.339Z,100808.50
2023-04-06T21:51:01.876Z,100801.84
2023-04-06T21:53:29.374Z,100808.16
2023-04-06T21:55:56.842Z,100807.94
2023-04-06T21:58:25.710Z,100801.16
2023-04-06T22:00:53.198Z,100796.13
2023-04-06T22:03:20.926Z,100798.78
2023-04-06T22:05:48.530Z,100803.09
2023-04-06T22:08:25.594Z,100802.06
2023-04-06T22:11:01.007Z,100799.41
2023-04-06T22:13:30.055Z,100791.47
2023-04-06T22:15:57.560Z,100783.47
2023-04-06T22:18:25.093Z,100781.03
2023-04-06T22:20:53.422Z,100782.53
2023-04-06T22:23:21.716Z,100775.91
2023-04-06T22:25:49.283Z,100783.84
2023-04-06T22:28:16.791Z,100786.38
2023-04-06T22:30:45.601Z,100771.13
2023-04-06T22:33:13.150Z,100770.97
2023-04-06T22:35:40.968Z,100779.22
2023-04-06T22:38:08.492Z,100784.22
2023-04-06T22:40:36.018Z,100779.06
2023-04-06T22:43:03.475Z,100777.88
2023-04-06T22:45:30.958Z,100772.09
2023-04-06T22:47:59.970Z,100772.94
2023-04-06T22:50:27.684Z,100760.53
2023-04-06T22:52:55.349Z,100761.81
2023-04-06T22:55:23.128Z,100760.84
2023-04-06T22:57:51.011Z,100754.09
2023-04-06T23:00:19.024Z,100758.06
2023-04-06T23:02:46.688Z,100751.41
2023-04-06T23:05:16.280Z,100753.06
2023-04-06T23:07:43.831Z,100758.03
2023-04-06T23:10:11.638Z,100751.09
2023-04-06T23:12:39.129Z,100751.78
2023-04-06T23:15:07.645Z,100750.09
2023-04-06T23:17:35.132Z,100745.09
2023-04-06T23:20:02.719Z,100739.66
2023-04-06T23:22:31.814Z,100738.19
2023-04-06T23:24:59.381Z,100737.47
2023-04-06T23:27:26.864Z,100733.19
2023-04-06T23:29:54.368Z,100735.72
2023-04-06T23:32:21.900Z,100733.03
2023-04-06T23:34:49.422Z,100741.47
2023-04-06T23:37:16.933Z,100731.84
2023-04-06T23:39:48.213Z,100731.50
2023-04-06T23:42:15.719Z,100729.84
2023-04-06T23:44:43.172Z,100733.66
2023-04-06T23:47:10.779Z,100727.53
2023-04-06T23:49:38.274Z,100728.03
2023-04-06T23:52:05.753Z,100717.97
2023-04-06T23:54:33.219Z,100717.00
2023-04-06T23:57:02.346Z,100713.31
2023-04-06T23:59:29.806Z,100716.31
